createdAt,value
2022-11-16T00:00:21.217Z,6.60
2022-11-16T00:01:21.204Z,5.20
2022-11-16T00:02:21.225Z,5.20
2022-11-16T00:03:21.170Z,4.80
2022-11-16T00:04:21.152Z,5.00
2022-11-16T00:05:25.535Z,9.10
2022-11-16T00:06:21.143Z,5.90
2022-11-16T00:07:21.206Z,6.00
2022-11-16T00:08:21.095Z,5.50
2022-11-16T00:09:21.106Z,6.50
2022-11-16T00:10:21.110Z,6.80
2022-11-16T00:11:21.070Z,4.90
2022-11-16T00:12:21.045Z,7.30
2022-11-16T00:13:21.037Z,5.20
2022-11-16T00:14:21.034Z,6.30
2022-11-16T00:15:21.007Z,6.50
2022-11-16T00:16:21.012Z,4.60
2022-11-16T00:17:21.006Z,7.10
2022-11-16T00:18:20.994Z,5.50
2022-11-16T00:19:20.948Z,7.00
2022-11-16T00:20:20.944Z,5.20
2022-11-16T00:21:20.926Z,5.10
2022-11-16T00:22:20.936Z,7.20
2022-11-16T00:23:20.912Z,6.00
2022-11-16T00:24:20.902Z,6.10
2022-11-16T00:25:20.874Z,6.40
2022-11-16T00:26:20.890Z,5.00
2022-11-16T00:27:20.847Z,6.40
2022-11-16T00:28:20.844Z,5.70
2022-11-16T00:29:20.818Z,6.60
2022-11-16T00:30:20.807Z,4.90
2022-11-16T00:31:20.804Z,5.90
2022-11-16T00:32:20.786Z,6.40
2022-11-16T00:33:20.766Z,7.00
2022-11-16T00:34:20.794Z,7.00
2022-11-16T00:35:20.736Z,8.20
2022-11-16T00:36:20.742Z,5.60
2022-11-16T00:37:20.712Z,7.00
2022-11-16T00:38:20.719Z,5.80
2022-11-16T00:39:20.702Z,6.50
2022-11-16T00:40:20.680Z,6.10
2022-11-16T00:41:20.677Z,6.40
2022-11-16T00:42:20.654Z,7.60
2022-11-16T00:43:20.627Z,5.40
2022-11-16T00:44:20.623Z,7.90
2022-11-16T00:45:20.601Z,7.10
2022-11-16T00:46:20.615Z,5.70
2022-11-16T00:47:20.588Z,9.10
2022-11-16T00:48:20.565Z,6.40
2022-11-16T00:49:20.572Z,7.80
2022-11-16T00:50:20.546Z,6.10
2022-11-16T00:51:20.527Z,7.70
2022-11-16T00:52:20.521Z,5.40
2022-11-16T00:53:20.500Z,6.80
2022-11-16T00:54:20.491Z,8.20
2022-11-16T00:55:20.480Z,10.00
2022-11-16T00:56:20.472Z,6.50
2022-11-16T00:57:20.445Z,7.90
2022-11-16T00:58:20.445Z,5.70
2022-11-16T00:59:20.414Z,7.00
2022-11-16T01:00:20.407Z,6.70
2022-11-16T01:01:20.407Z,7.10
2022-11-16T01:02:20.381Z,8.30
2022-11-16T01:03:20.357Z,10.50
2022-11-16T01:04:20.347Z,7.80
2022-11-16T01:05:20.333Z,8.80
2022-11-16T01:06:20.340Z,6.60
2022-11-16T01:07:20.366Z,8.30
2022-11-16T01:08:20.304Z,8.10
2022-11-16T01:09:20.279Z,6.70
2022-11-16T01:10:20.297Z,7.10
2022-11-16T01:11:20.275Z,7.80
2022-11-16T01:12:20.253Z,11.70
2022-11-16T01:13:20.233Z,6.20
2022-11-16T01:14:20.250Z,7.10
2022-11-16T01:15:20.209Z,8.80
2022-11-16T01:16:20.188Z,9.00
2022-11-16T01:17:20.179Z,8.60
2022-11-16T01:18:20.181Z,15.60
2022-11-16T01:19:20.163Z,9.30
2022-11-16T01:20:20.138Z,9.10
2022-11-16T01:21:20.131Z,6.80
2022-11-16T01:22:20.136Z,9.70
2022-11-16T01:23:20.098Z,7.80
2022-11-16T01:24:20.089Z,8.20
2022-11-16T01:25:20.053Z,8.00
2022-11-16T01:26:20.054Z,9.30
2022-11-16T01:27:20.081Z,10.10
2022-11-16T01:28:20.064Z,10.20
2022-11-16T01:29:20.012Z,7.60
2022-11-16T01:30:20.012Z,8.30
2022-11-16T01:31:20.007Z,10.30
2022-11-16T01:32:19.993Z,8.20
2022-11-16T01:33:19.969Z,9.70
2022-11-16T01:34:19.952Z,9.10
2022-11-16T01:35:19.929Z,11.20
2022-11-16T01:36:19.923Z,10.60
2022-11-16T01:37:19.944Z,7.80
2022-11-16T01:38:19.907Z,10.60
2022-11-16T01:39:19.880Z,12.00
2022-11-16T01:40:19.882Z,9.20
2022-11-16T01:41:19.899Z,9.80
2022-11-16T01:42:19.848Z,10.00
2022-11-16T01:43:19.821Z,7.80
2022-11-16T01:44:19.814Z,8.40
2022-11-16T01:45:19.794Z,10.80
2022-11-16T01:46:19.804Z,8.60
2022-11-16T01:47:19.781Z,7.90
2022-11-16T01:48:19.847Z,7.80
2022-11-16T01:49:19.755Z,11.00
2022-11-16T01:50:19.731Z,13.40
2022-11-16T01:51:19.727Z,9.10
2022-11-16T01:52:19.734Z,8.50
2022-11-16T01:53:20.600Z,11.60
2022-11-16T01:54:19.676Z,10.50
2022-11-16T01:55:19.670Z,8.20
2022-11-16T01:56:19.652Z,9.00
2022-11-16T01:57:19.668Z,10.30
2022-11-16T01:58:19.625Z,10.00
2022-11-16T01:59:19.630Z,10.30
2022-11-16T02:01:31.126Z,8.80
2022-11-16T02:02:32.041Z,10.70
2022-11-16T02:03:32.007Z,11.20
2022-11-16T02:04:31.993Z,9.10
2022-11-16T02:05:32.035Z,11.10
2022-11-16T02:06:31.959Z,9.40
2022-11-16T02:07:32.058Z,12.10
2022-11-16T02:08:32.491Z,11.60
2022-11-16T02:09:31.928Z,12.80
2022-11-16T02:10:31.914Z,12.80
2022-11-16T02:11:31.906Z,13.50
2022-11-16T02:12:31.880Z,12.30
2022-11-16T02:13:31.871Z,9.80
2022-11-16T02:14:31.869Z,11.70
2022-11-16T02:15:31.844Z,9.70
2022-11-16T02:16:31.835Z,9.70
2022-11-16T02:17:31.823Z,11.00
2022-11-16T02:18:32.241Z,12.30
2022-11-16T02:19:31.795Z,13.90
2022-11-16T02:20:31.774Z,14.10
2022-11-16T02:21:31.772Z,10.70
2022-11-16T02:22:31.742Z,10.70
2022-11-16T02:23:31.761Z,12.40
2022-11-16T02:24:31.714Z,13.90
2022-11-16T02:25:31.718Z,12.30
2022-11-16T02:26:31.709Z,9.90
2022-11-16T02:27:31.698Z,10.70
2022-11-16T02:28:31.984Z,9.40
2022-11-16T02:29:31.664Z,12.70
2022-11-16T02:30:31.640Z,11.40
2022-11-16T02:31:31.624Z,9.00
2022-11-16T02:32:31.610Z,11.50
2022-11-16T02:33:31.616Z,11.50
2022-11-16T02:34:31.585Z,10.80
2022-11-16T02:35:31.570Z,11.80
2022-11-16T02:36:31.714Z,10.10
2022-11-16T02:37:31.543Z,13.00
2022-11-16T02:38:31.884Z,11.90
2022-11-16T02:39:31.515Z,15.10
2022-11-16T02:40:31.522Z,10.50
2022-11-16T02:41:30.518Z,14.00
2022-11-16T02:42:31.478Z,9.70
2022-11-16T02:43:31.481Z,14.40
2022-11-16T02:44:31.450Z,13.10
2022-11-16T02:45:31.438Z,13.70
2022-11-16T02:46:31.418Z,14.00
2022-11-16T02:47:31.410Z,11.50
2022-11-16T02:48:31.872Z,11.70
2022-11-16T02:49:31.383Z,13.50
2022-11-16T02:50:31.377Z,14.70
2022-11-16T02:51:31.345Z,10.60
2022-11-16T02:52:31.338Z,11.80
2022-11-16T02:53:31.327Z,14.50
2022-11-16T02:54:31.315Z,18.60
2022-11-16T02:55:31.298Z,14.10
2022-11-16T02:56:31.276Z,15.10
2022-11-16T02:57:31.277Z,15.10
2022-11-16T02:58:31.480Z,11.10
2022-11-16T02:59:31.247Z,11.20
2022-11-16T03:00:31.227Z,11.30
2022-11-16T03:01:31.283Z,14.40
2022-11-16T03:02:31.194Z,11.10
2022-11-16T03:03:31.192Z,12.40
2022-11-16T03:04:31.190Z,13.60
2022-11-16T03:05:31.155Z,14.30
2022-11-16T03:06:31.139Z,15.00
2022-11-16T03:07:31.206Z,13.70
2022-11-16T03:08:31.551Z,11.10
2022-11-16T03:09:31.112Z,14.70
2022-11-16T03:10:31.106Z,11.80
2022-11-16T03:11:31.080Z,14.40
2022-11-16T03:12:31.069Z,12.90
2022-11-16T03:13:31.067Z,14.10
2022-11-16T03:14:31.049Z,15.00
2022-11-16T03:15:31.021Z,14.70
2022-11-16T03:16:31.000Z,11.70
2022-11-16T03:17:31.010Z,15.30
2022-11-16T03:18:31.383Z,14.90
2022-11-16T03:19:30.989Z,13.10
2022-11-16T03:20:30.955Z,13.70
2022-11-16T03:21:30.937Z,12.60
2022-11-16T03:22:30.930Z,13.60
2022-11-16T03:23:30.916Z,16.60
2022-11-16T03:24:30.906Z,12.50
2022-11-16T03:25:30.889Z,16.80
2022-11-16T03:26:30.872Z,15.40
2022-11-16T03:27:30.883Z,18.20
2022-11-16T03:28:31.148Z,13.00
2022-11-16T03:29:30.839Z,18.70
2022-11-16T03:30:30.816Z,15.10
2022-11-16T03:31:30.800Z,12.90
2022-11-16T03:32:30.809Z,13.60
2022-11-16T03:33:30.788Z,17.90
2022-11-16T03:34:30.791Z,18.20
2022-11-16T03:35:30.769Z,17.60
2022-11-16T03:36:30.737Z,15.90
2022-11-16T03:37:30.739Z,16.50
2022-11-16T03:38:30.946Z,16.00
2022-11-16T03:39:30.739Z,14.80
2022-11-16T03:40:30.685Z,15.70
2022-11-16T03:41:30.671Z,13.60
2022-11-16T03:42:30.680Z,15.70
2022-11-16T03:43:30.649Z,15.00
2022-11-16T03:44:30.634Z,16.10
2022-11-16T03:45:30.616Z,14.80
2022-11-16T03:46:30.602Z,14.00
2022-11-16T03:47:30.591Z,18.10
2022-11-16T03:48:30.921Z,18.60
2022-11-16T03:49:30.570Z,15.30
2022-11-16T03:50:30.539Z,17.10
2022-11-16T03:51:30.534Z,18.90
2022-11-16T03:52:30.524Z,16.50
2022-11-16T03:53:30.512Z,16.70
2022-11-16T03:54:30.502Z,14.80
2022-11-16T03:55:30.474Z,15.90
2022-11-16T03:56:30.476Z,21.60
2022-11-16T03:57:30.490Z,19.20
2022-11-16T03:58:31.944Z,16.40
2022-11-16T03:59:30.443Z,19.10
2022-11-16T04:00:30.466Z,16.70
2022-11-16T04:01:30.455Z,18.40
2022-11-16T04:02:30.397Z,22.10
2022-11-16T04:03:30.430Z,19.00
2022-11-16T04:04:30.365Z,18.60
2022-11-16T04:05:30.341Z,15.90
2022-11-16T04:06:30.322Z,17.10
2022-11-16T04:07:30.362Z,15.00
2022-11-16T04:08:30.441Z,17.30
2022-11-16T04:09:30.307Z,18.90
2022-11-16T04:10:30.262Z,19.60
2022-11-16T04:11:29.250Z,16.80
2022-11-16T04:12:30.247Z,18.90
2022-11-16T04:13:30.232Z,18.90
2022-11-16T04:14:30.230Z,16.40
2022-11-16T04:15:30.215Z,18.00
2022-11-16T04:16:30.232Z,17.80
2022-11-16T04:17:30.173Z,18.20
2022-11-16T04:18:30.222Z,17.70
2022-11-16T04:19:30.231Z,20.50
2022-11-16T04:20:30.133Z,20.80
2022-11-16T04:21:30.135Z,21.20
2022-11-16T04:22:30.118Z,20.30
2022-11-16T04:23:30.094Z,20.00
2022-11-16T04:24:30.097Z,20.70
2022-11-16T04:25:30.105Z,20.10
2022-11-16T04:26:30.066Z,18.90
2022-11-16T04:27:30.037Z,21.20
2022-11-16T04:28:30.019Z,22.50
2022-11-16T04:29:30.022Z,21.60
2022-11-16T04:30:30.002Z,19.60
2022-11-16T04:31:29.997Z,21.90
2022-11-16T04:32:29.977Z,23.30
2022-11-16T04:33:29.959Z,17.50
2022-11-16T04:34:29.965Z,22.30
2022-11-16T04:35:29.976Z,20.00
2022-11-16T04:36:29.913Z,20.30
2022-11-16T04:37:29.922Z,19.70
2022-11-16T04:38:29.916Z,19.60
2022-11-16T04:39:29.868Z,19.50
2022-11-16T04:40:29.891Z,23.20
2022-11-16T04:41:29.852Z,21.60
2022-11-16T04:42:30.776Z,19.50
2022-11-16T04:43:29.857Z,18.20
2022-11-16T04:44:30.100Z,21.50
2022-11-16T04:45:29.801Z,21.90
2022-11-16T04:46:29.778Z,18.00
2022-11-16T04:47:29.765Z,19.20
2022-11-16T04:48:29.759Z,21.00
2022-11-16T04:49:29.730Z,18.90
2022-11-16T04:50:29.743Z,17.10
2022-11-16T04:51:29.722Z,18.70
2022-11-16T04:52:29.841Z,18.30
2022-11-16T04:53:29.682Z,20.30
2022-11-16T04:54:29.708Z,19.30
2022-11-16T04:55:29.666Z,16.30
2022-11-16T04:56:29.664Z,23.20
2022-11-16T04:57:29.644Z,23.00
2022-11-16T04:58:29.613Z,16.70
2022-11-16T04:59:29.623Z,21.20
2022-11-16T05:00:29.590Z,24.00
2022-11-16T05:01:29.651Z,19.70
2022-11-16T05:02:29.594Z,19.80
2022-11-16T05:03:29.546Z,19.60
2022-11-16T05:04:29.545Z,24.70
2022-11-16T05:05:29.531Z,20.30
2022-11-16T05:06:29.507Z,17.80
2022-11-16T05:07:29.533Z,17.80
2022-11-16T05:08:29.486Z,15.60
2022-11-16T05:09:29.464Z,18.00
2022-11-16T05:10:29.461Z,19.40
2022-11-16T05:11:29.441Z,21.40
2022-11-16T05:12:29.555Z,16.30
2022-11-16T05:13:29.407Z,17.60
2022-11-16T05:14:29.403Z,19.10
2022-11-16T05:15:29.389Z,17.70
2022-11-16T05:16:29.372Z,22.30
2022-11-16T05:17:29.362Z,18.70
2022-11-16T05:18:29.348Z,19.30
2022-11-16T05:19:29.367Z,15.60
2022-11-16T05:20:29.316Z,18.40
2022-11-16T05:21:29.298Z,17.50
2022-11-16T05:22:29.305Z,17.70
2022-11-16T05:23:29.279Z,19.20
2022-11-16T05:24:29.268Z,17.00
2022-11-16T05:25:33.835Z,16.10
2022-11-16T05:26:29.247Z,16.80
2022-11-16T05:27:29.266Z,19.70
2022-11-16T05:28:29.219Z,22.70
2022-11-16T05:29:29.183Z,21.20
2022-11-16T05:30:29.293Z,16.70
2022-11-16T05:31:29.182Z,18.90
2022-11-16T05:32:29.153Z,19.20
2022-11-16T05:33:29.133Z,19.40
2022-11-16T05:34:29.137Z,22.50
2022-11-16T05:35:29.124Z,18.30
2022-11-16T05:36:29.114Z,17.70
2022-11-16T05:37:29.094Z,18.80
2022-11-16T05:38:29.077Z,17.10
2022-11-16T05:39:29.069Z,18.30
2022-11-16T05:40:29.069Z,17.50
2022-11-16T05:41:29.041Z,18.90
2022-11-16T05:42:29.037Z,16.20
2022-11-16T05:43:28.999Z,16.70
2022-11-16T05:44:29.006Z,18.30
2022-11-16T05:45:28.978Z,14.50
2022-11-16T05:46:28.969Z,17.30
2022-11-16T05:47:28.952Z,21.60
2022-11-16T05:48:28.943Z,15.90
2022-11-16T05:49:28.925Z,16.20
2022-11-16T05:50:28.926Z,23.40
2022-11-16T05:51:28.919Z,16.20
2022-11-16T05:52:28.886Z,14.50
2022-11-16T05:53:28.875Z,19.40
2022-11-16T05:54:27.905Z,14.70
2022-11-16T05:55:28.842Z,17.60
2022-11-16T05:56:28.900Z,15.30
2022-11-16T05:57:28.817Z,19.10
2022-11-16T05:58:28.867Z,14.20
2022-11-16T05:59:28.783Z,15.90
2022-11-16T06:00:28.776Z,15.20
2022-11-16T06:01:28.760Z,15.30
2022-11-16T06:02:28.753Z,17.50
2022-11-16T06:03:28.777Z,17.50
2022-11-16T06:04:28.718Z,14.60
2022-11-16T06:05:28.820Z,15.50
2022-11-16T06:06:28.693Z,17.20
2022-11-16T06:07:28.791Z,14.60
2022-11-16T06:08:28.679Z,18.70
2022-11-16T06:09:28.643Z,16.20
2022-11-16T06:10:28.640Z,16.90
2022-11-16T06:11:34.305Z,16.50
2022-11-16T06:12:28.671Z,17.00
2022-11-16T06:13:28.587Z,17.30
2022-11-16T06:14:28.582Z,15.60
2022-11-16T06:15:28.587Z,15.90
2022-11-16T06:16:28.562Z,17.20
2022-11-16T06:17:28.603Z,16.10
2022-11-16T06:18:28.529Z,13.10
2022-11-16T06:19:32.381Z,19.20
2022-11-16T06:20:28.522Z,14.10
2022-11-16T06:21:28.559Z,13.40
2022-11-16T06:22:28.484Z,17.70
2022-11-16T06:23:28.455Z,14.80
2022-11-16T06:24:28.463Z,13.10
2022-11-16T06:25:28.460Z,25.70
2022-11-16T06:26:28.450Z,17.70
2022-11-16T06:27:28.406Z,16.50
2022-11-16T06:28:28.398Z,15.10
2022-11-16T06:29:28.382Z,15.10
2022-11-16T06:30:28.384Z,16.10
2022-11-16T06:31:28.361Z,14.50
2022-11-16T06:32:28.347Z,17.20
2022-11-16T06:33:32.315Z,15.30
2022-11-16T06:34:28.331Z,14.40
2022-11-16T06:35:28.306Z,14.50
2022-11-16T06:36:28.294Z,18.10
2022-11-16T06:37:28.275Z,16.70
2022-11-16T06:38:28.258Z,15.80
2022-11-16T06:39:28.228Z,14.40
2022-11-16T06:40:28.244Z,13.80
2022-11-16T06:41:28.224Z,22.10
2022-11-16T06:42:28.276Z,16.90
2022-11-16T06:43:28.328Z,14.20
2022-11-16T06:44:28.228Z,13.40
2022-11-16T06:45:28.161Z,12.80
2022-11-16T06:46:28.181Z,12.00
2022-11-16T06:47:28.185Z,12.90
2022-11-16T06:48:28.113Z,11.20
2022-11-16T06:49:28.116Z,16.60
2022-11-16T06:50:28.145Z,11.20
2022-11-16T06:51:28.093Z,11.00
2022-11-16T06:53:42.785Z,11.90
2022-11-16T06:54:40.451Z,11.50
2022-11-16T06:55:40.426Z,11.10
2022-11-16T06:56:40.449Z,13.90
2022-11-16T06:57:40.411Z,10.50
2022-11-16T06:58:42.813Z,13.30
2022-11-16T06:59:40.372Z,12.10
2022-11-16T07:00:40.639Z,10.70
2022-11-16T07:01:40.421Z,11.70
2022-11-16T07:02:40.334Z,9.40
2022-11-16T07:03:40.314Z,10.50
2022-11-16T07:04:40.308Z,9.20
2022-11-16T07:05:40.298Z,12.70
2022-11-16T07:06:40.302Z,16.10
2022-11-16T07:07:40.301Z,9.60
2022-11-16T07:08:40.261Z,10.80
2022-11-16T07:09:40.234Z,11.90
2022-11-16T07:10:40.236Z,10.00
2022-11-16T07:11:40.240Z,10.40
2022-11-16T07:12:40.206Z,11.20
2022-11-16T07:13:40.180Z,10.60
2022-11-16T07:14:40.165Z,10.70
2022-11-16T07:15:40.157Z,10.40
2022-11-16T07:16:40.195Z,11.40
2022-11-16T07:17:40.129Z,13.80
2022-11-16T07:18:40.131Z,11.40
2022-11-16T07:19:40.107Z,9.90
2022-11-16T07:20:40.104Z,11.80
2022-11-16T07:21:40.092Z,9.90
2022-11-16T07:22:40.070Z,9.00
2022-11-16T07:23:40.066Z,10.80
2022-11-16T07:24:40.049Z,10.90
2022-11-16T07:25:40.019Z,12.10
2022-11-16T07:26:40.026Z,12.60
2022-11-16T07:27:40.014Z,15.80
2022-11-16T07:28:46.529Z,15.30
2022-11-16T07:29:39.967Z,11.80
2022-11-16T07:30:39.978Z,12.30
2022-11-16T07:31:39.983Z,12.10
2022-11-16T07:32:40.020Z,13.50
2022-11-16T07:33:39.919Z,12.60
2022-11-16T07:34:39.933Z,14.40
2022-11-16T07:35:39.887Z,16.30
2022-11-16T07:36:39.900Z,14.20
2022-11-16T07:37:39.863Z,14.10
2022-11-16T07:38:39.876Z,13.30
2022-11-16T07:39:39.844Z,11.80
2022-11-16T07:40:39.974Z,17.50
2022-11-16T07:41:39.811Z,11.20
2022-11-16T07:42:39.834Z,9.90
2022-11-16T07:43:39.789Z,11.00
2022-11-16T07:44:39.775Z,9.10
2022-11-16T07:45:39.805Z,10.70
2022-11-16T07:46:48.095Z,12.40
2022-11-16T07:47:39.740Z,10.60
2022-11-16T07:48:39.724Z,8.50
2022-11-16T07:49:39.704Z,9.40
2022-11-16T07:50:39.690Z,10.60
2022-11-16T07:51:39.780Z,10.40
2022-11-16T07:52:39.681Z,12.70
2022-11-16T07:53:39.662Z,10.60
2022-11-16T07:54:39.659Z,8.50
2022-11-16T07:55:39.654Z,12.90
2022-11-16T07:56:39.629Z,8.30
2022-11-16T07:57:39.601Z,10.60
2022-11-16T07:58:39.577Z,11.20
2022-11-16T07:59:39.586Z,11.90
2022-11-16T08:00:39.566Z,10.70
2022-11-16T08:01:39.651Z,9.80
2022-11-16T08:02:39.562Z,9.80
2022-11-16T08:03:39.497Z,10.70
2022-11-16T08:04:39.519Z,7.70
2022-11-16T08:05:39.498Z,8.90
2022-11-16T08:06:39.493Z,10.40
2022-11-16T08:07:39.550Z,15.10
2022-11-16T08:08:39.456Z,10.80
2022-11-16T08:09:39.675Z,12.10
2022-11-16T08:10:39.425Z,9.20
2022-11-16T08:11:39.441Z,8.00
2022-11-16T08:12:39.410Z,8.90
2022-11-16T08:13:39.392Z,10.10
2022-11-16T08:14:39.465Z,10.70
2022-11-16T08:15:39.564Z,11.00
2022-11-16T08:16:39.402Z,7.70
2022-11-16T08:17:39.363Z,8.70
2022-11-16T08:18:39.318Z,11.30
2022-11-16T08:19:39.300Z,11.70
2022-11-16T08:20:39.286Z,10.70
2022-11-16T08:21:39.289Z,10.70
2022-11-16T08:22:39.270Z,8.00
2022-11-16T08:23:39.237Z,8.30
2022-11-16T08:24:39.247Z,7.60
2022-11-16T08:25:39.209Z,8.20
2022-11-16T08:26:39.228Z,10.90
2022-11-16T08:27:39.451Z,10.60
2022-11-16T08:28:39.231Z,9.90
2022-11-16T08:29:39.166Z,8.90
2022-11-16T08:30:39.236Z,14.20
2022-11-16T08:31:39.163Z,14.20
2022-11-16T08:32:39.132Z,11.80
2022-11-16T08:33:39.292Z,10.60
2022-11-16T08:34:39.186Z,8.30
2022-11-16T08:35:39.097Z,13.60
2022-11-16T08:36:39.097Z,11.80
2022-11-16T08:37:39.058Z,9.20
2022-11-16T08:38:39.047Z,10.10
2022-11-16T08:39:39.033Z,11.70
2022-11-16T08:40:39.030Z,7.80
2022-11-16T08:41:39.008Z,13.30
2022-11-16T08:42:43.528Z,8.20
2022-11-16T08:43:38.975Z,14.60
2022-11-16T08:44:38.969Z,13.40
2022-11-16T08:45:38.963Z,11.60
2022-11-16T08:46:39.075Z,11.70
2022-11-16T08:47:38.937Z,13.90
2022-11-16T08:48:38.915Z,11.80
2022-11-16T08:49:38.894Z,11.40
2022-11-16T08:51:02.323Z,12.40
2022-11-16T08:51:38.899Z,14.50
2022-11-16T08:52:38.872Z,17.80
2022-11-16T08:53:38.839Z,13.30
2022-11-16T08:54:38.849Z,13.00
2022-11-16T08:55:38.812Z,13.50
2022-11-16T08:56:38.827Z,15.40
2022-11-16T08:57:38.841Z,13.60
2022-11-16T08:58:38.793Z,14.70
2022-11-16T08:59:38.779Z,13.40
2022-11-16T09:00:38.752Z,17.70
2022-11-16T09:01:38.784Z,13.30
2022-11-16T09:02:38.762Z,14.70
2022-11-16T09:03:38.718Z,16.70
2022-11-16T09:04:38.716Z,16.40
2022-11-16T09:05:38.680Z,11.80
2022-11-16T09:06:38.685Z,15.60
2022-11-16T09:07:38.697Z,14.50
2022-11-16T09:08:38.701Z,15.90
2022-11-16T09:09:38.621Z,19.70
2022-11-16T09:10:38.687Z,15.10
2022-11-16T09:11:38.607Z,18.10
2022-11-16T09:12:38.627Z,17.50
2022-11-16T09:13:38.567Z,13.80
2022-11-16T09:14:38.572Z,16.20
2022-11-16T09:15:38.584Z,13.80
2022-11-16T09:16:38.560Z,15.40
2022-11-16T09:17:38.565Z,15.30
2022-11-16T09:18:38.512Z,18.30
2022-11-16T09:19:38.528Z,14.40
2022-11-16T09:20:38.477Z,17.80
2022-11-16T09:21:38.470Z,13.10
2022-11-16T09:22:38.602Z,18.90
2022-11-16T09:23:38.455Z,17.10
2022-11-16T09:24:38.436Z,16.90
2022-11-16T09:25:38.418Z,17.80
2022-11-16T09:26:38.450Z,13.70
2022-11-16T09:27:38.410Z,14.80
2022-11-16T09:28:38.384Z,17.20
2022-11-16T09:29:38.390Z,15.80
2022-11-16T09:30:38.382Z,17.60
2022-11-16T09:31:38.355Z,14.20
2022-11-16T09:32:38.324Z,13.50
2022-11-16T09:33:38.464Z,18.60
2022-11-16T09:34:38.311Z,15.70
2022-11-16T09:35:38.276Z,14.70
2022-11-16T09:36:38.283Z,15.00
2022-11-16T09:37:38.264Z,15.10
2022-11-16T09:38:55.677Z,14.40
2022-11-16T09:39:38.306Z,12.90
2022-11-16T09:40:38.223Z,14.70
2022-11-16T09:41:38.623Z,14.30
2022-11-16T09:42:38.990Z,13.60
2022-11-16T09:43:44.125Z,12.60
2022-11-16T09:44:38.281Z,13.00
2022-11-16T09:45:38.441Z,13.20
2022-11-16T09:46:38.891Z,15.40
2022-11-16T09:47:38.353Z,13.00
2022-11-16T09:48:38.597Z,16.30
2022-11-16T09:49:38.468Z,14.70
2022-11-16T09:50:38.192Z,14.20
2022-11-16T09:51:38.423Z,13.50
2022-11-16T09:52:38.223Z,13.00
2022-11-16T09:53:38.561Z,12.30
2022-11-16T09:54:38.382Z,15.40
2022-11-16T09:55:38.108Z,10.40
2022-11-16T09:56:38.176Z,10.60
2022-11-16T09:57:38.121Z,10.90
2022-11-16T09:58:38.867Z,8.00
2022-11-16T09:59:38.158Z,11.60
2022-11-16T10:00:38.319Z,7.80
2022-11-16T10:01:38.026Z,8.30
2022-11-16T10:02:38.851Z,6.70
2022-11-16T10:03:37.905Z,8.90
2022-11-16T10:04:38.177Z,8.90
2022-11-16T10:05:38.872Z,4.20
2022-11-16T10:06:38.454Z,13.50
2022-11-16T10:07:38.182Z,6.10
2022-11-16T10:08:37.948Z,9.10
2022-11-16T10:09:38.002Z,9.20
2022-11-16T10:10:38.110Z,8.60
2022-11-16T10:11:38.303Z,7.30
2022-11-16T10:12:37.802Z,10.10
2022-11-16T10:13:37.961Z,7.90
2022-11-16T10:14:38.120Z,9.40
2022-11-16T10:15:37.775Z,7.00
2022-11-16T10:16:37.799Z,6.70
2022-11-16T10:17:38.056Z,7.60
2022-11-16T10:18:39.037Z,10.40
2022-11-16T10:19:38.689Z,10.60
2022-11-16T10:20:37.817Z,6.10
2022-11-16T10:21:38.542Z,7.60
2022-11-16T10:22:37.775Z,5.40
2022-11-16T10:23:38.978Z,9.30
2022-11-16T10:24:37.846Z,7.60
2022-11-16T10:25:37.688Z,14.70
2022-11-16T10:26:37.932Z,7.40
2022-11-16T10:27:37.925Z,12.00
2022-11-16T10:28:37.695Z,8.80
2022-11-16T10:29:37.930Z,4.60
2022-11-16T10:30:38.281Z,7.70
2022-11-16T10:31:37.535Z,12.70
2022-11-16T10:32:37.514Z,6.90
2022-11-16T10:33:37.771Z,6.70
2022-11-16T10:34:37.482Z,6.50
2022-11-16T10:35:37.486Z,8.30
2022-11-16T10:36:37.463Z,11.60
2022-11-16T10:37:37.548Z,8.90
2022-11-16T10:38:37.460Z,6.10
2022-11-16T10:39:37.643Z,6.70
2022-11-16T10:40:37.442Z,5.20
2022-11-16T10:41:37.577Z,4.90
2022-11-16T10:42:37.598Z,8.80
2022-11-16T10:43:37.662Z,8.90
2022-11-16T10:44:38.262Z,8.20
2022-11-16T10:45:37.351Z,5.90
2022-11-16T10:46:38.518Z,5.80
2022-11-16T10:47:37.812Z,6.80
2022-11-16T10:48:37.576Z,7.80
2022-11-16T10:49:37.644Z,7.80
2022-11-16T10:50:37.288Z,8.10
2022-11-16T10:51:37.268Z,7.90
2022-11-16T10:52:37.282Z,10.20
2022-11-16T10:53:37.558Z,9.40
2022-11-16T10:54:42.860Z,9.00
2022-11-16T10:55:37.366Z,6.20
2022-11-16T10:56:37.262Z,12.00
2022-11-16T10:57:37.333Z,7.80
2022-11-16T10:58:37.203Z,7.70
2022-11-16T10:59:37.589Z,3.40
2022-11-16T11:00:37.610Z,9.10
2022-11-16T11:01:37.152Z,10.90
2022-11-16T11:02:38.531Z,7.00
2022-11-16T11:03:37.364Z,10.20
2022-11-16T11:04:37.096Z,8.20
2022-11-16T11:05:37.177Z,8.40
2022-11-16T11:06:37.899Z,7.40
2022-11-16T11:07:38.216Z,9.50
2022-11-16T11:08:37.120Z,5.90
2022-11-16T11:09:37.028Z,5.30
2022-11-16T11:10:37.032Z,7.00
2022-11-16T11:11:37.031Z,5.50
2022-11-16T11:12:36.992Z,6.00
2022-11-16T11:13:37.202Z,4.80
2022-11-16T11:14:37.001Z,5.80
2022-11-16T11:15:36.951Z,7.70
2022-11-16T11:16:36.963Z,7.40
2022-11-16T11:17:36.953Z,6.80
2022-11-16T11:18:36.921Z,10.50
2022-11-16T11:19:36.895Z,8.90
2022-11-16T11:20:41.643Z,5.20
2022-11-16T11:21:36.879Z,5.30
2022-11-16T11:22:36.893Z,7.70
2022-11-16T11:23:36.973Z,9.10
2022-11-16T11:24:44.427Z,5.60
2022-11-16T11:25:36.823Z,14.70
2022-11-16T11:26:37.449Z,8.10
2022-11-16T11:27:36.797Z,7.60
2022-11-16T11:28:36.770Z,8.70
2022-11-16T11:29:36.762Z,7.10
2022-11-16T11:30:36.739Z,6.20
2022-11-16T11:31:36.814Z,8.30
2022-11-16T11:32:36.719Z,7.60
2022-11-16T11:33:36.990Z,5.70
2022-11-16T11:34:36.700Z,13.50
2022-11-16T11:35:36.675Z,8.30
2022-11-16T11:36:36.681Z,6.60
2022-11-16T11:37:36.665Z,9.20
2022-11-16T11:38:36.643Z,7.90
2022-11-16T11:39:36.737Z,8.40
2022-11-16T11:40:36.603Z,5.70
2022-11-16T11:41:36.614Z,7.00
2022-11-16T11:42:36.603Z,4.70
2022-11-16T11:43:36.969Z,6.80
2022-11-16T11:44:36.581Z,6.60
2022-11-16T11:45:36.569Z,5.40
2022-11-16T11:47:06.730Z,9.40
2022-11-16T11:48:36.502Z,12.00
2022-11-16T11:49:36.484Z,7.90
2022-11-16T11:50:36.479Z,8.70
2022-11-16T11:51:36.482Z,7.10
2022-11-16T11:52:36.450Z,4.10
2022-11-16T11:53:36.782Z,3.10
2022-11-16T11:54:39.223Z,4.90
2022-11-16T11:55:36.407Z,5.80
2022-11-16T11:56:36.392Z,10.60
2022-11-16T11:57:36.418Z,5.90
2022-11-16T11:58:36.361Z,4.10
2022-11-16T11:59:36.352Z,6.00
2022-11-16T12:00:36.397Z,6.50
2022-11-16T12:01:36.319Z,7.90
2022-11-16T12:02:36.386Z,5.30
2022-11-16T12:03:36.582Z,6.90
2022-11-16T12:04:36.324Z,7.20
2022-11-16T12:05:58.465Z,5.90
2022-11-16T12:06:41.163Z,8.10
2022-11-16T12:07:36.351Z,3.50
2022-11-16T12:16:08.551Z,6.60
2022-11-16T12:17:09.536Z,5.30
2022-11-16T12:18:09.537Z,3.80
2022-11-16T12:19:09.566Z,6.90
2022-11-16T12:20:09.520Z,8.20
2022-11-16T12:21:09.492Z,5.10
2022-11-16T12:22:09.461Z,3.20
2022-11-16T12:23:09.461Z,10.00
2022-11-16T12:24:09.463Z,12.20
2022-11-16T12:25:09.463Z,7.50
2022-11-16T12:26:09.418Z,7.00
2022-11-16T12:27:09.397Z,8.20
2022-11-16T12:28:09.452Z,4.00
2022-11-16T12:29:09.500Z,7.20
2022-11-16T12:30:09.383Z,4.60
2022-11-16T12:31:09.491Z,9.20
2022-11-16T12:32:09.375Z,11.10
2022-11-16T12:33:09.370Z,4.30
2022-11-16T12:34:09.335Z,3.50
2022-11-16T12:35:09.334Z,4.60
2022-11-16T12:36:09.286Z,3.90
2022-11-16T12:37:09.280Z,4.50
2022-11-16T12:38:09.253Z,2.90
2022-11-16T12:39:09.246Z,3.30
2022-11-16T12:40:09.238Z,5.80
2022-11-16T12:41:09.220Z,5.60
2022-11-16T12:42:09.202Z,4.40
2022-11-16T12:43:09.193Z,2.60
2022-11-16T12:44:09.172Z,2.60
2022-11-16T12:45:09.182Z,4.50
2022-11-16T12:46:09.185Z,4.10
2022-11-16T12:47:09.147Z,6.60
2022-11-16T12:48:09.120Z,5.80
2022-11-16T12:49:09.125Z,3.70
2022-11-16T12:50:09.098Z,4.30
2022-11-16T12:51:08.098Z,4.10
2022-11-16T12:52:09.065Z,3.80
2022-11-16T12:53:09.056Z,4.70
2022-11-16T12:54:09.038Z,6.20
2022-11-16T12:55:26.495Z,2.90
2022-11-16T12:56:09.039Z,3.30
2022-11-16T12:57:09.007Z,5.20
2022-11-16T12:58:08.986Z,6.20
2022-11-16T12:59:08.994Z,3.90
2022-11-16T13:00:08.963Z,4.50
2022-11-16T13:01:09.037Z,6.70
2022-11-16T13:02:08.934Z,5.10
2022-11-16T13:03:08.935Z,5.10
2022-11-16T13:04:08.909Z,3.50
2022-11-16T13:05:08.899Z,4.90
2022-11-16T13:06:08.883Z,2.90
2022-11-16T13:07:11.174Z,3.90
2022-11-16T13:08:08.878Z,3.10
2022-11-16T13:09:08.875Z,4.30
2022-11-16T13:10:08.828Z,6.30
2022-11-16T13:11:08.842Z,6.20
2022-11-16T13:12:08.794Z,6.00
2022-11-16T13:13:30.139Z,7.20